Time;durP1;ratioP1;P1;durP2;ratioP2;P2;SDS_P1;SDS_P2;PMS_P1;PMS_P2;Temp;Humidity;BMP_temperature;BMP_pressure;BME280_temperature;BME280_humidity;BME280_pressure;Samples;Min_cycle;Max_cycle;Signal;HPM_P1;HPM_P2
2022/07/18 00:01:40;;;;;;;5.25;1.58;;;18.30;50.10;;;;;;5043903;28;20040;-78
2022/07/18 00:04:06;;;;;;;3.60;1.48;;;18.10;50.00;;;;;;5055895;28;20116;-78
2022/07/18 00:06:31;;;;;;;5.43;1.70;;;18.10;50.70;;;;;;5042647;28;20036;-78
2022/07/18 00:08:57;;;;;;;2.10;1.55;;;18.00;50.30;;;;;;5045287;28;20072;-78
2022/07/18 00:11:22;;;;;;;2.65;1.48;;;18.00;50.60;;;;;;5044501;28;20116;-78
2022/07/18 00:13:50;;;;;;;8.35;1.98;;;17.90;50.70;;;;;;5041660;28;20445;-78
2022/07/18 00:16:15;;;;;;;6.03;1.83;;;17.90;50.70;;;;;;5058413;28;20029;-78
2022/07/18 00:18:41;;;;;;;4.95;1.75;;;17.80;50.60;;;;;;5055045;28;20025;-79
2022/07/18 00:21:07;;;;;;;3.50;1.90;;;17.70;50.70;;;;;;5044234;28;20074;-78
2022/07/18 00:23:32;;;;;;;3.80;1.63;;;17.70;50.90;;;;;;5037189;28;20028;-78
2022/07/18 00:25:58;;;;;;;3.25;1.77;;;17.60;50.90;;;;;;5054368;28;20029;-78
2022/07/18 00:28:23;;;;;;;5.68;1.88;;;17.60;51.10;;;;;;5051758;28;20107;-78
2022/07/18 00:30:49;;;;;;;6.15;1.67;;;17.40;51.10;;;;;;5048909;28;20021;-78
2022/07/18 00:33:15;;;;;;;2.45;1.30;;;17.50;53.20;;;;;;5043935;28;20471;-78
2022/07/18 00:35:40;;;;;;;7.28;2.08;;;17.40;52.00;;;;;;5046735;28;20107;-78
2022/07/18 00:38:06;;;;;;;19.40;4.03;;;17.40;52.70;;;;;;5056102;28;20021;-78
2022/07/18 00:40:31;;;;;;;1.90;1.35;;;17.40;58.80;;;;;;5042444;28;20028;-78
2022/07/18 00:42:57;;;;;;;3.15;1.45;;;17.30;51.80;;;;;;5053881;28;20037;-78
2022/07/18 00:45:22;;;;;;;3.50;1.48;;;17.20;51.60;;;;;;5052522;28;20072;-77
2022/07/18 00:47:51;;;;;;;4.50;1.98;;;17.20;52.70;;;;;;5050907;28;20029;-78
2022/07/18 00:50:20;;;;;;;5.38;1.85;;;17.10;54.40;;;;;;5047909;28;20113;-78
2022/07/18 00:52:46;;;;;;;4.28;1.63;;;17.00;57.40;;;;;;5055707;28;20052;-78
2022/07/18 00:55:12;;;;;;;4.32;1.63;;;17.00;52.50;;;;;;5030597;28;20075;-78
2022/07/18 00:57:37;;;;;;;3.80;1.77;;;16.90;52.30;;;;;;5038331;28;20107;-78
2022/07/18 01:02:52;;;;;;;3.78;1.95;;;16.90;52.50;;;;;;5053116;28;20082;-78
2022/07/18 01:05:17;;;;;;;6.00;2.10;;;16.80;53.60;;;;;;5022619;28;20025;-78
2022/07/18 01:07:43;;;;;;;3.65;1.85;;;16.70;56.60;;;;;;5037813;28;20495;-78
2022/07/18 01:10:09;;;;;;;4.38;2.28;;;16.60;57.20;;;;;;5049514;28;20456;-78
2022/07/18 01:12:34;;;;;;;7.40;1.90;;;16.50;57.60;;;;;;5053933;28;20531;-78
2022/07/18 01:15:00;;;;;;;3.72;1.90;;;16.50;55.90;;;;;;5047191;28;20059;-77
2022/07/18 01:17:25;;;;;;;3.90;1.95;;;16.50;53.30;;;;;;5050382;28;20404;-77
2022/07/18 01:19:51;;;;;;;4.28;1.60;;;16.50;53.50;;;;;;5055698;28;20035;-78
2022/07/18 01:22:18;;;;;;;6.47;2.13;;;16.50;56.00;;;;;;5039839;28;20163;-78
2022/07/18 01:24:43;;;;;;;6.07;2.03;;;16.50;53.50;;;;;;5052232;28;20033;-78
2022/07/18 01:27:12;;;;;;;5.38;1.77;;;16.50;55.50;;;;;;5053632;28;20044;-77
2022/07/18 01:29:38;;;;;;;5.70;1.67;;;16.40;56.40;;;;;;5049662;28;20076;-77
2022/07/18 01:32:08;;;;;;;4.65;1.70;;;16.20;54.30;;;;;;5049635;28;20052;-77
2022/07/18 01:34:33;;;;;;;4.35;1.88;;;15.90;55.90;;;;;;5054174;28;20069;-78
2022/07/18 01:36:59;;;;;;;4.80;1.70;;;15.80;57.00;;;;;;5043005;28;20452;-77
2022/07/18 01:39:25;;;;;;;2.78;1.50;;;15.90;56.50;;;;;;5053172;28;20041;-78
2022/07/18 01:41:57;;;;;;;2.67;1.73;;;15.90;56.00;;;;;;5035943;28;20037;-78
2022/07/18 01:44:23;;;;;;;3.83;1.90;;;15.80;56.80;;;;;;5005100;28;20036;-77
2022/07/18 01:46:49;;;;;;;3.72;1.77;;;15.80;56.20;;;;;;5055323;28;20337;-77
2022/07/18 01:49:14;;;;;;;6.03;2.15;;;15.90;56.70;;;;;;5051418;28;20025;-77
2022/07/18 01:51:44;;;;;;;5.70;2.05;;;15.90;56.70;;;;;;5049066;28;20025;-77
2022/07/18 01:54:09;;;;;;;5.20;2.20;;;15.90;54.60;;;;;;5043942;28;20033;-77
2022/07/18 01:56:35;;;;;;;3.58;1.85;;;15.90;54.60;;;;;;5040140;28;20029;-77
2022/07/18 01:59:02;;;;;;;3.88;1.90;;;15.80;57.00;;;;;;5059460;28;20040;-78
2022/07/18 02:01:27;;;;;;;7.40;2.22;;;15.70;55.70;;;;;;5049352;28;20033;-77
2022/07/18 02:03:53;;;;;;;5.50;1.80;;;15.70;59.10;;;;;;5054648;28;20024;-78
2022/07/18 02:06:18;;;;;;;5.18;2.20;;;15.60;56.40;;;;;;5039391;28;20025;-78
2022/07/18 02:08:44;;;;;;;4.80;1.83;;;15.50;57.40;;;;;;5052440;28;20055;-78
2022/07/18 02:11:09;;;;;;;5.07;2.20;;;15.40;56.60;;;;;;5058613;28;21976;-77
2022/07/18 02:13:35;;;;;;;6.53;1.70;;;15.30;58.60;;;;;;5048841;28;20390;-78
2022/07/18 02:16:01;;;;;;;3.08;1.52;;;15.10;59.20;;;;;;5056039;28;20021;-77
2022/07/18 02:18:26;;;;;;;4.25;1.83;;;15.10;60.20;;;;;;5052824;28;20052;-77
2022/07/18 02:20:52;;;;;;;5.55;2.40;;;15.10;61.30;;;;;;5035849;28;20063;-77
2022/07/18 02:23:17;;;;;;;4.55;1.73;;;15.10;59.90;;;;;;5006713;28;20154;-78
2022/07/18 02:25:43;;;;;;;4.63;1.80;;;15.30;59.60;;;;;;5055790;28;20489;-77
2022/07/18 02:28:08;;;;;;;4.28;1.50;;;15.30;59.30;;;;;;5053660;28;20520;-77
2022/07/18 02:30:34;;;;;;;2.25;1.80;;;15.30;57.80;;;;;;5054142;28;20721;-77
2022/07/18 02:33:00;;;;;;;3.45;1.83;;;15.10;59.10;;;;;;5050160;28;20052;-77
2022/07/18 02:35:25;;;;;;;3.75;1.73;;;15.00;59.40;;;;;;5050339;28;20027;-77
2022/07/18 02:37:51;;;;;;;3.60;1.60;;;15.00;59.00;;;;;;5046007;28;20045;-77
2022/07/18 02:40:16;;;;;;;3.65;2.08;;;14.90;59.60;;;;;;5010596;28;20037;-77
2022/07/18 02:42:42;;;;;;;4.53;1.85;;;14.80;59.30;;;;;;5051885;28;20056;-77
2022/07/18 02:45:08;;;;;;;4.38;1.73;;;14.70;60.60;;;;;;5041622;28;20024;-77
2022/07/18 02:47:33;;;;;;;4.05;2.00;;;14.70;60.60;;;;;;5036474;28;20025;-78
2022/07/18 02:49:59;;;;;;;7.93;2.47;;;14.70;60.20;;;;;;5049611;28;20419;-77
2022/07/18 02:52:24;;;;;;;3.40;1.60;;;14.70;61.10;;;;;;5050583;28;20033;-77
2022/07/18 02:54:50;;;;;;;3.45;2.00;;;14.70;59.90;;;;;;5036719;28;20025;-77
2022/07/18 02:57:16;;;;;;;5.18;2.08;;;14.60;61.20;;;;;;5043724;28;20119;-77
2022/07/18 02:59:41;;;;;;;3.63;1.90;;;14.60;62.00;;;;;;5053985;28;20064;-77
2022/07/18 03:02:07;;;;;;;3.20;1.70;;;14.60;63.60;;;;;;5035737;28;20095;-77
2022/07/18 03:04:33;;;;;;;5.50;1.83;;;14.60;62.30;;;;;;5035814;28;20146;-77
2022/07/18 03:06:58;;;;;;;4.68;1.90;;;14.60;60.90;;;;;;5050964;28;20024;-77
2022/07/18 03:09:26;;;;;;;2.30;1.50;;;14.70;58.40;;;;;;5051189;28;20060;-77
2022/07/18 03:11:55;;;;;;;5.18;2.03;;;14.70;59.00;;;;;;5037183;28;20389;-77
2022/07/18 03:14:21;;;;;;;2.90;1.50;;;14.50;59.40;;;;;;5006998;28;20032;-77
2022/07/18 03:16:46;;;;;;;5.15;2.20;;;14.40;62.40;;;;;;5033494;28;20032;-77
2022/07/18 03:19:12;;;;;;;3.45;1.67;;;14.40;62.60;;;;;;5027654;28;20089;-77
2022/07/18 03:21:37;;;;;;;3.83;2.00;;;14.40;63.20;;;;;;5042388;28;20146;-77
2022/07/18 03:24:03;;;;;;;5.18;1.77;;;14.50;59.80;;;;;;5051943;28;20406;-77
2022/07/18 03:26:29;;;;;;;6.25;1.83;;;14.40;68.60;;;;;;5037660;28;20059;-76
2022/07/18 03:28:54;;;;;;;5.70;1.80;;;14.30;64.20;;;;;;5038822;28;20033;-76
2022/07/18 03:31:20;;;;;;;6.07;1.70;;;14.30;62.70;;;;;;5024963;28;20504;-76
2022/07/18 03:33:45;;;;;;;6.18;1.88;;;14.50;58.90;;;;;;5052219;28;20037;-77
2022/07/18 03:36:11;;;;;;;2.88;1.27;;;14.50;59.20;;;;;;5037071;28;20036;-77
2022/07/18 03:38:37;;;;;;;4.88;2.00;;;14.50;58.90;;;;;;5051907;28;20508;-77
2022/07/18 03:41:03;;;;;;;9.55;1.77;;;14.50;61.10;;;;;;5048195;28;20064;-77
2022/07/18 03:43:29;;;;;;;6.10;2.17;;;14.40;63.80;;;;;;5052349;28;20041;-77
2022/07/18 03:45:55;;;;;;;4.93;2.05;;;14.30;65.80;;;;;;5050603;28;20029;-77
2022/07/18 03:48:20;;;;;;;4.75;2.00;;;14.30;64.60;;;;;;5028778;28;20040;-77
2022/07/18 03:50:46;;;;;;;11.20;2.90;;;14.30;62.30;;;;;;5042635;28;20029;-77
2022/07/18 03:53:11;;;;;;;3.22;1.85;;;14.30;63.30;;;;;;5008500;28;20166;-77
2022/07/18 03:55:37;;;;;;;5.05;1.83;;;14.30;61.90;;;;;;5040230;28;20431;-77
2022/07/18 03:58:04;;;;;;;4.15;2.08;;;14.30;59.70;;;;;;5053949;28;20053;-77
2022/07/18 04:00:29;;;;;;;3.60;1.65;;;14.30;59.60;;;;;;5054224;28;20040;-77
2022/07/18 04:02:55;;;;;;;5.10;1.88;;;14.40;59.30;;;;;;5052056;28;20369;-77
2022/07/18 04:05:20;;;;;;;4.50;2.10;;;14.30;67.60;;;;;;5010943;28;20111;-77
2022/07/18 04:07:46;;;;;;;2.65;2.10;;;14.20;63.20;;;;;;5049622;28;20044;-77
2022/07/18 04:10:12;;;;;;;3.15;1.75;;;14.20;62.30;;;;;;5043828;28;20938;-77
2022/07/18 04:12:50;;;;;;;2.35;1.70;;;14.30;60.20;;;;;;5041612;28;20989;-77
2022/07/18 04:15:16;;;;;;;5.45;1.70;;;14.40;60.10;;;;;;5052300;28;20065;-77
2022/07/18 04:17:42;;;;;;;4.47;2.25;;;14.30;61.80;;;;;;5048859;28;20040;-77
2022/07/18 04:20:08;;;;;;;5.72;2.00;;;14.30;61.60;;;;;;5062330;28;20392;-77
2022/07/18 04:22:49;;;;;;;5.43;2.88;;;14.40;61.80;;;;;;5051045;28;20048;-78
2022/07/18 04:25:16;;;;;;;3.83;2.20;;;14.50;63.90;;;;;;5057569;28;20037;-77
2022/07/18 04:27:42;;;;;;;4.57;2.00;;;14.60;60.20;;;;;;5046032;28;20042;-78
2022/07/18 04:30:08;;;;;;;5.40;2.17;;;14.80;59.30;;;;;;5040983;28;20400;-77
2022/07/18 04:32:33;;;;;;;3.55;1.83;;;14.90;59.60;;;;;;5054537;28;20063;-77
2022/07/18 04:34:59;;;;;;;4.30;2.28;;;14.90;60.30;;;;;;5057586;28;20056;-77
2022/07/18 04:37:25;;;;;;;4.03;1.98;;;15.00;59.20;;;;;;5053566;28;20055;-77
2022/07/18 04:39:50;;;;;;;2.13;1.75;;;15.10;59.00;;;;;;5040792;28;20037;-77
2022/07/18 04:42:16;;;;;;;4.55;1.98;;;15.20;58.90;;;;;;5027168;28;20041;-77
2022/07/18 04:44:41;;;;;;;2.22;1.30;;;15.30;58.80;;;;;;5039702;28;20037;-77
2022/07/18 04:47:07;;;;;;;2.90;1.38;;;15.40;59.20;;;;;;5043186;28;20020;-77
2022/07/18 04:49:32;;;;;;;3.47;1.60;;;15.50;59.60;;;;;;5045182;28;20029;-77
2022/07/18 04:51:58;;;;;;;3.80;1.85;;;15.60;59.60;;;;;;5043481;28;20032;-78
2022/07/18 04:54:23;;;;;;;4.63;1.77;;;15.70;59.70;;;;;;5052797;28;20389;-77
2022/07/18 04:56:49;;;;;;;2.63;1.30;;;15.70;60.00;;;;;;5035702;28;20116;-77
2022/07/18 04:59:15;;;;;;;5.63;2.05;;;15.80;59.80;;;;;;5020834;28;20040;-77
2022/07/18 05:01:40;;;;;;;2.88;1.70;;;15.80;59.60;;;;;;5053921;28;20127;-77
2022/07/18 05:04:06;;;;;;;3.38;1.65;;;15.90;59.30;;;;;;5038729;28;20128;-77
2022/07/18 05:06:31;;;;;;;3.92;1.67;;;16.00;59.20;;;;;;5053371;28;20025;-77
2022/07/18 05:08:57;;;;;;;6.25;1.98;;;16.20;60.20;;;;;;5054370;28;20228;-77
2022/07/18 05:11:22;;;;;;;6.25;2.05;;;16.30;61.80;;;;;;5035559;28;20067;-77
2022/07/18 05:13:48;;;;;;;3.58;1.70;;;16.50;61.70;;;;;;5044158;28;20075;-77
2022/07/18 05:16:13;;;;;;;3.75;1.77;;;16.80;62.20;;;;;;5052737;28;20056;-77
2022/07/18 05:18:39;;;;;;;2.05;1.40;;;17.00;62.60;;;;;;5054049;28;20033;-77
2022/07/18 05:21:04;;;;;;;5.32;1.95;;;17.20;62.90;;;;;;5040968;28;20043;-77
2022/07/18 05:23:30;;;;;;;3.55;1.67;;;17.40;63.60;;;;;;5040575;28;20037;-77
2022/07/18 05:25:55;;;;;;;2.72;1.70;;;17.60;64.60;;;;;;5048962;28;20033;-77
2022/07/18 05:28:21;;;;;;;3.53;1.58;;;17.80;64.40;;;;;;5043836;28;20078;-77
2022/07/18 05:30:47;;;;;;;4.47;1.60;;;18.00;64.80;;;;;;5052201;28;20441;-78
2022/07/18 05:33:12;;;;;;;3.20;1.85;;;18.20;65.20;;;;;;5012576;28;20094;-77
2022/07/18 05:35:38;;;;;;;2.72;1.98;;;18.40;65.10;;;;;;5032041;28;20056;-77
2022/07/18 05:38:03;;;;;;;2.13;1.35;;;18.60;65.40;;;;;;5054263;28;20064;-78
2022/07/18 05:40:29;;;;;;;3.33;1.60;;;18.80;65.30;;;;;;5049716;28;20166;-77
2022/07/18 05:42:55;;;;;;;1.85;1.13;;;19.10;64.60;;;;;;5044031;28;20102;-78
2022/07/18 05:45:22;;;;;;;4.93;1.52;;;19.30;64.20;;;;;;5031406;28;20036;-78
2022/07/18 05:47:48;;;;;;;6.15;1.70;;;19.60;64.10;;;;;;5051011;28;20401;-78
2022/07/18 05:50:13;;;;;;;6.15;1.58;;;19.90;64.10;;;;;;5043864;28;20033;-77
2022/07/18 05:52:39;;;;;;;3.33;1.30;;;20.10;63.80;;;;;;5053497;28;20035;-77
2022/07/18 05:55:05;;;;;;;6.35;1.42;;;20.40;63.50;;;;;;5056730;28;20362;-77
2022/07/18 05:57:31;;;;;;;2.60;1.30;;;20.60;64.40;;;;;;5034798;28;20043;-78
2022/07/18 05:59:56;;;;;;;3.65;1.50;;;20.90;63.50;;;;;;5016963;28;20116;-78
2022/07/18 06:02:22;;;;;;;6.82;2.20;;;21.20;63.10;;;;;;5026418;28;20033;-77
2022/07/18 06:04:47;;;;;;;5.85;1.90;;;21.40;63.00;;;;;;5052424;28;20033;-77
2022/07/18 06:07:13;;;;;;;5.88;1.48;;;21.60;62.60;;;;;;5029615;28;20106;-77
2022/07/18 06:09:39;;;;;;;3.03;1.38;;;21.80;62.20;;;;;;5050744;28;20072;-78
2022/07/18 06:12:05;;;;;;;2.05;1.10;;;22.00;61.80;;;;;;5052084;28;20021;-78
2022/07/18 06:14:31;;;;;;;4.72;1.70;;;22.20;61.00;;;;;;5054354;28;20033;-78
2022/07/18 06:16:57;;;;;;;5.00;1.83;;;22.50;60.80;;;;;;5052909;28;20033;-78
2022/07/18 06:19:23;;;;;;;3.70;1.25;;;22.70;60.80;;;;;;5052805;28;20037;-78
2022/07/18 06:21:48;;;;;;;7.72;1.35;;;22.90;60.90;;;;;;5044715;28;20059;-78
2022/07/18 06:24:14;;;;;;;2.95;1.33;;;23.20;60.80;;;;;;5044574;28;20088;-78
2022/07/18 06:26:39;;;;;;;8.07;1.70;;;23.40;60.30;;;;;;5053355;28;20025;-78
2022/07/18 06:29:05;;;;;;;4.22;1.60;;;23.60;60.10;;;;;;5043455;28;20059;-78
2022/07/18 06:31:31;;;;;;;7.47;1.63;;;23.90;60.10;;;;;;5043138;28;20028;-78
2022/07/18 06:33:56;;;;;;;3.40;1.40;;;24.20;60.00;;;;;;5051258;28;20491;-78
2022/07/18 06:36:23;;;;;;;2.92;1.30;;;24.10;56.30;;;;;;5049784;28;20390;-78
2022/07/18 06:38:52;;;;;;;3.35;1.30;;;24.30;59.10;;;;;;5044785;28;20031;-78
2022/07/18 06:41:20;;;;;;;5.00;1.58;;;24.50;56.40;;;;;;5052847;28;20058;-78
2022/07/18 06:43:46;;;;;;;5.00;1.33;;;24.50;58.40;;;;;;5051771;28;20028;-78
2022/07/18 06:46:12;;;;;;;5.82;1.35;;;24.90;57.50;;;;;;5041494;28;20387;-78
2022/07/18 06:48:37;;;;;;;2.08;1.02;;;25.30;59.40;;;;;;5053840;28;20037;-78
2022/07/18 06:51:04;;;;;;;2.58;1.33;;;25.70;58.10;;;;;;5052392;28;20036;-78
2022/07/18 06:53:30;;;;;;;1.73;0.90;;;25.90;56.10;;;;;;5023177;28;20031;-78
2022/07/18 06:55:55;;;;;;;2.88;0.85;;;25.90;52.30;;;;;;5044060;28;20115;-78
2022/07/18 06:58:21;;;;;;;1.38;1.00;;;26.00;52.60;;;;;;5054337;28;20058;-79
2022/07/18 07:00:47;;;;;;;1.73;0.88;;;26.00;49.80;;;;;;5051100;28;20554;-79
2022/07/18 07:03:12;;;;;;;3.65;1.20;;;26.00;50.50;;;;;;5025599;28;20028;-79
2022/07/18 07:05:38;;;;;;;1.90;1.13;;;26.00;49.30;;;;;;5041275;28;20033;-79
2022/07/18 07:08:04;;;;;;;2.13;1.08;;;26.70;52.50;;;;;;5053433;28;20108;-79
2022/07/18 07:10:29;;;;;;;3.55;1.10;;;26.80;54.80;;;;;;5044063;28;20029;-79
2022/07/18 07:12:55;;;;;;;2.60;0.90;;;26.80;50.20;;;;;;5042121;28;20029;-79
2022/07/18 07:15:22;;;;;;;1.73;0.93;;;26.70;52.40;;;;;;5027708;28;20029;-79
2022/07/18 07:17:48;;;;;;;2.92;1.00;;;27.20;52.40;;;;;;5050224;28;20064;-79
2022/07/18 07:20:13;;;;;;;2.03;0.85;;;27.20;49.30;;;;;;5027375;28;20493;-79
2022/07/18 07:22:49;;;;;;;2.53;0.90;;;27.70;51.90;;;;;;5039033;28;20045;-79
2022/07/18 07:25:14;;;;;;;4.57;0.90;;;27.80;50.80;;;;;;5051779;28;20046;-79
2022/07/18 07:27:40;;;;;;;1.20;1.00;;;28.20;50.50;;;;;;5051741;28;20048;-80
2022/07/18 07:30:06;;;;;;;7.95;1.30;;;28.20;50.60;;;;;;5051106;28;20112;-80
2022/07/18 07:32:39;;;;;;;2.42;0.95;;;28.40;46.20;;;;;;5052331;28;20032;-80
2022/07/18 07:35:06;;;;;;;5.30;1.10;;;28.30;47.90;;;;;;5048222;28;20036;-80
2022/07/18 07:37:33;;;;;;;3.08;0.77;;;28.10;45.50;;;;;;5034070;28;20033;-80
2022/07/18 07:39:58;;;;;;;2.13;1.02;;;28.50;47.00;;;;;;5042728;28;20029;-80
2022/07/18 07:42:25;;;;;;;1.70;1.08;;;29.00;46.60;;;;;;5033992;28;20040;-80
2022/07/18 07:44:50;;;;;;;3.25;0.93;;;29.30;48.70;;;;;;5041055;28;20107;-80
2022/07/18 07:47:16;;;;;;;7.20;1.15;;;29.00;48.20;;;;;;5029475;28;20036;-80
2022/07/18 07:49:41;;;;;;;3.10;0.85;;;29.10;44.70;;;;;;5052789;28;20028;-80
2022/07/18 07:52:07;;;;;;;5.13;1.05;;;29.40;47.20;;;;;;5023834;28;20025;-81
2022/07/18 07:54:32;;;;;;;1.67;0.88;;;29.90;44.40;;;;;;5043568;28;20047;-81
2022/07/18 07:56:58;;;;;;;5.85;1.00;;;29.80;46.70;;;;;;5037048;28;20045;-80
2022/07/18 07:59:24;;;;;;;3.08;1.15;;;29.90;45.50;;;;;;5036625;28;20102;-81
2022/07/18 08:01:49;;;;;;;2.53;0.90;;;30.20;46.60;;;;;;5046151;28;20073;-81
2022/07/18 08:04:15;;;;;;;4.20;1.08;;;30.50;45.20;;;;;;5017118;28;20028;-81
2022/07/18 08:06:40;;;;;;;5.50;1.20;;;30.20;43.50;;;;;;5042580;28;20464;-81
2022/07/18 08:09:08;;;;;;;4.70;1.20;;;30.60;46.90;;;;;;5044647;28;20684;-82
2022/07/18 08:11:33;;;;;;;2.33;0.95;;;30.80;43.80;;;;;;5033901;28;20041;-82
2022/07/18 08:13:59;;;;;;;1.45;0.90;;;30.80;44.60;;;;;;5024869;28;20146;-82
2022/07/18 08:16:25;;;;;;;3.70;0.93;;;31.10;44.10;;;;;;5056093;28;20032;-82
2022/07/18 08:18:50;;;;;;;2.85;1.08;;;31.50;44.10;;;;;;5050948;28;20434;-83
2022/07/18 08:21:16;;;;;;;5.15;1.05;;;31.20;44.10;;;;;;5014298;28;20116;-83
2022/07/18 08:23:43;;;;;;;3.67;1.02;;;31.70;41.70;;;;;;5038580;28;20037;-83
2022/07/18 08:26:08;;;;;;;2.92;1.10;;;31.80;40.10;;;;;;5040025;28;20028;-84
2022/07/18 08:28:34;;;;;;;4.25;0.90;;;31.80;41.10;;;;;;5057315;28;20028;-85
2022/07/18 08:30:59;;;;;;;2.47;0.85;;;32.00;42.10;;;;;;5056703;28;20028;-85
2022/07/18 08:33:25;;;;;;;1.85;0.80;;;32.10;41.40;;;;;;5040594;28;20055;-86
2022/07/18 08:35:50;;;;;;;1.65;0.80;;;32.80;41.30;;;;;;5058809;28;20029;-84
2022/07/18 08:38:16;;;;;;;4.13;1.00;;;32.80;40.50;;;;;;5014470;28;20063;-85
2022/07/18 08:40:41;;;;;;;1.50;0.80;;;33.00;40.10;;;;;;5054759;28;20185;-86
2022/07/18 08:43:07;;;;;;;1.50;0.90;;;33.10;39.70;;;;;;5045020;28;20047;-87
2022/07/18 08:45:33;;;;;;;1.75;0.90;;;33.20;39.80;;;;;;5042695;28;20037;-86
2022/07/18 08:47:58;;;;;;;2.55;0.90;;;33.40;40.00;;;;;;5041386;28;20515;-86
2022/07/18 08:50:26;;;;;;;2.58;0.80;;;33.70;38.90;;;;;;5055730;28;20029;-85
2022/07/18 08:52:52;;;;;;;4.25;0.90;;;33.50;37.00;;;;;;5051733;28;20474;-86
2022/07/18 08:55:17;;;;;;;2.33;1.15;;;33.60;37.00;;;;;;5046568;28;20087;-86
2022/07/18 08:57:43;;;;;;;1.15;0.90;;;33.60;38.70;;;;;;5044246;28;20401;-86
2022/07/18 09:00:09;;;;;;;1.13;0.70;;;33.90;38.10;;;;;;5061490;28;20455;-86
2022/07/18 09:02:35;;;;;;;8.07;2.45;;;33.90;39.60;;;;;;5056606;28;20119;-85
2022/07/18 09:05:01;;;;;;;6.85;1.10;;;34.10;37.00;;;;;;5057543;28;20102;-84
2022/07/18 09:07:34;;;;;;;4.90;1.42;;;34.40;37.70;;;;;;5058621;28;20032;-86
2022/07/18 09:10:02;;;;;;;2.13;1.05;;;34.60;37.80;;;;;;5025848;28;20032;-84
2022/07/18 09:12:29;;;;;;;1.67;0.95;;;34.50;38.50;;;;;;5044776;28;20506;-86
2022/07/18 09:14:54;;;;;;;2.88;0.98;;;35.00;37.50;;;;;;5057884;28;20228;-87
2022/07/18 09:17:25;;;;;;;1.13;1.00;;;34.80;37.70;;;;;;5044322;28;20119;-84
2022/07/18 09:20:16;;;;;;;3.20;1.20;;;35.00;36.90;;;;;;5045113;28;20033;-83
2022/07/18 09:22:44;;;;;;;3.08;1.05;;;35.20;36.60;;;;;;5038290;28;20039;-86
2022/07/18 09:25:14;;;;;;;2.58;1.02;;;35.10;37.00;;;;;;5054651;28;20055;-86
2022/07/18 09:27:41;;;;;;;5.25;0.90;;;35.20;36.50;;;;;;5055074;28;20036;-84
2022/07/18 09:30:16;;;;;;;2.88;0.98;;;35.40;35.80;;;;;;5040426;28;20108;-82
2022/07/18 09:32:52;;;;;;;1.38;0.90;;;35.60;35.70;;;;;;5053872;28;20039;-86
2022/07/18 09:35:29;;;;;;;4.50;1.10;;;35.80;35.30;;;;;;5040052;28;20170;-86
2022/07/18 09:38:01;;;;;;;2.83;1.10;;;35.80;33.90;;;;;;5036745;28;20491;-87
2022/07/18 09:40:29;;;;;;;2.80;0.90;;;36.00;35.00;;;;;;5054731;28;20039;-87
2022/07/18 09:42:57;;;;;;;1.48;0.70;;;36.10;35.20;;;;;;5052533;28;20079;-83
2022/07/18 09:45:24;;;;;;;1.60;1.00;;;36.30;34.50;;;;;;5039556;28;20032;-86
2022/07/18 09:47:51;;;;;;;1.13;0.80;;;36.30;34.30;;;;;;5041432;28;20496;-82
2022/07/18 09:50:22;;;;;;;4.82;1.58;;;36.40;34.40;;;;;;5028640;28;20029;-87
2022/07/18 09:53:15;;;;;;;1.45;1.15;;;36.70;33.00;;;;;;5031970;28;20041;-86
2022/07/18 09:55:43;;;;;;;1.35;1.00;;;36.70;33.60;;;;;;5047629;28;20064;-86
2022/07/18 09:58:08;;;;;;;2.67;1.02;;;36.70;33.60;;;;;;5044996;28;20051;-86
2022/07/18 10:00:35;;;;;;;2.15;0.90;;;36.70;33.20;;;;;;5053592;28;20516;-85
2022/07/18 10:03:02;;;;;;;4.30;1.02;;;36.70;33.20;;;;;;5051974;28;20029;-86
2022/07/18 10:05:29;;;;;;;2.40;1.20;;;37.00;32.10;;;;;;5036889;28;20898;-86
2022/07/18 10:07:55;;;;;;;1.10;0.80;;;37.00;33.30;;;;;;5034961;28;20048;-86
2022/07/18 10:10:24;;;;;;;2.33;1.30;;;37.10;34.00;;;;;;5053708;28;20036;-86
2022/07/18 10:12:52;;;;;;;1.30;1.10;;;37.30;33.40;;;;;;5050820;28;20381;-86
2022/07/18 10:15:19;;;;;;;2.90;1.15;;;37.30;32.90;;;;;;5050282;28;20029;-87
2022/07/18 10:17:44;;;;;;;7.30;1.67;;;37.30;33.40;;;;;;5054202;28;20048;-85
2022/07/18 10:20:11;;;;;;;1.20;1.10;;;37.50;32.80;;;;;;5037090;28;20046;-84
2022/07/18 10:22:38;;;;;;;5.35;1.35;;;37.60;32.80;;;;;;5025100;28;20048;-86
2022/07/18 10:25:05;;;;;;;1.92;1.08;;;37.80;32.40;;;;;;5053574;28;20317;-85
2022/07/18 10:27:53;;;;;;;1.48;1.10;;;37.70;32.90;;;;;;5038511;28;20029;-84
2022/07/18 10:30:32;;;;;;;2.30;1.00;;;38.10;32.90;;;;;;5048730;28;20083;-85
2022/07/18 10:32:58;;;;;;;2.13;1.23;;;38.10;31.90;;;;;;5047835;28;20036;-84
2022/07/18 10:35:59;;;;;;;2.67;1.40;;;38.50;31.10;;;;;;5050509;28;20040;-86
2022/07/18 10:38:25;;;;;;;3.35;1.30;;;38.80;29.60;;;;;;5038095;28;20667;-87
2022/07/18 10:41:09;;;;;;;1.42;0.93;;;38.50;30.30;;;;;;5053787;28;20032;-81
2022/07/18 10:43:36;;;;;;;3.35;1.23;;;38.50;31.30;;;;;;5052384;28;20090;-85
2022/07/18 10:46:03;;;;;;;3.63;1.35;;;38.70;30.30;;;;;;5046956;28;20033;-85
2022/07/18 10:48:32;;;;;;;3.00;1.10;;;38.70;31.00;;;;;;5037463;28;20120;-86
2022/07/18 10:51:08;;;;;;;1.73;1.08;;;38.70;30.90;;;;;;5051521;28;20041;-84
2022/07/18 10:53:55;;;;;;;1.67;0.95;;;38.80;31.40;;;;;;5035074;28;20061;-85
2022/07/18 10:56:42;;;;;;;1.95;0.95;;;39.30;30.00;;;;;;5056051;28;20044;-86
2022/07/18 10:59:18;;;;;;;1.52;1.00;;;39.00;31.10;;;;;;5041438;28;20484;-85
2022/07/18 11:02:02;;;;;;;2.97;1.02;;;39.10;30.20;;;;;;5052007;28;20029;-86
2022/07/18 11:04:33;;;;;;;4.63;1.10;;;39.30;29.30;;;;;;5027363;28;20036;-86
2022/07/18 11:07:17;;;;;;;4.80;1.33;;;39.40;29.80;;;;;;5051920;28;20029;-86
2022/07/18 11:09:47;;;;;;;1.65;1.15;;;39.50;29.70;;;;;;5054688;28;20414;-86
2022/07/18 11:12:25;;;;;;;1.48;1.08;;;39.60;30.00;;;;;;5050587;28;20039;-85
2022/07/18 11:15:01;;;;;;;1.73;1.00;;;39.50;30.20;;;;;;5051669;28;20044;-84
2022/07/18 11:17:51;;;;;;;4.95;1.50;;;39.50;29.20;;;;;;5020855;28;20047;-83
2022/07/18 11:20:27;;;;;;;3.67;1.55;;;39.80;29.10;;;;;;5053838;28;20408;-86
2022/07/18 11:22:52;;;;;;;1.48;1.23;;;39.90;28.90;;;;;;5054412;28;20041;-83
2022/07/18 11:25:18;;;;;;;2.53;1.27;;;39.90;28.70;;;;;;5046524;28;20526;-85
2022/07/18 11:27:44;;;;;;;2.28;1.13;;;40.10;27.70;;;;;;5047602;28;20036;-86
2022/07/18 11:30:15;;;;;;;4.40;1.20;;;40.10;28.20;;;;;;5057023;28;20029;-86
2022/07/18 11:32:40;;;;;;;3.53;1.38;;;40.20;28.00;;;;;;5055840;28;20064;-85
2022/07/18 11:35:08;;;;;;;4.35;1.38;;;40.30;27.90;;;;;;5055831;28;20548;-86
2022/07/18 11:37:33;;;;;;;1.63;1.42;;;40.10;28.60;;;;;;5057441;28;20063;-85
2022/07/18 11:40:06;;;;;;;2.90;1.10;;;40.20;29.00;;;;;;5056330;28;20041;-85
2022/07/18 11:42:41;;;;;;;4.18;1.40;;;40.50;28.70;;;;;;5054206;28;20041;-81
2022/07/18 11:45:08;;;;;;;3.10;1.55;;;40.60;27.90;;;;;;5024625;28;20492;-84
2022/07/18 11:47:50;;;;;;;3.40;1.27;;;40.70;27.20;;;;;;5043056;28;20048;-84
2022/07/18 11:50:17;;;;;;;1.23;1.05;;;40.80;28.30;;;;;;5040950;28;20029;-84
2022/07/18 11:52:43;;;;;;;4.15;1.55;;;40.70;27.70;;;;;;5054787;28;20030;-83
2022/07/18 11:55:10;;;;;;;2.90;1.20;;;40.50;28.00;;;;;;5055454;28;20081;-85
2022/07/18 11:57:36;;;;;;;1.65;1.10;;;40.60;28.60;;;;;;5052894;28;20068;-85
2022/07/18 12:00:19;;;;;;;3.38;1.50;;;40.70;27.90;;;;;;5050569;28;20048;-83
2022/07/18 12:03:12;;;;;;;2.33;1.50;;;40.80;27.40;;;;;;5015766;28;20025;-81
2022/07/18 12:05:39;;;;;;;4.72;1.70;;;40.80;27.90;;;;;;5058382;28;20032;-84
2022/07/18 12:08:27;;;;;;;4.38;1.27;;;40.80;27.30;;;;;;5055532;28;20123;-85
2022/07/18 12:11:08;;;;;;;2.65;1.17;;;40.90;28.50;;;;;;5043512;28;20047;-84
2022/07/18 12:13:46;;;;;;;2.00;1.40;;;40.80;28.30;;;;;;5046794;28;20035;-85
2022/07/18 12:16:31;;;;;;;5.78;1.40;;;40.80;29.00;;;;;;5052762;28;20630;-85
2022/07/18 12:19:17;;;;;;;6.82;1.70;;;40.90;28.90;;;;;;5052532;28;20122;-85
2022/07/18 12:21:55;;;;;;;1.60;1.25;;;41.60;28.00;;;;;;5039494;28;20033;-85
2022/07/18 12:24:26;;;;;;;5.50;1.92;;;41.60;28.20;;;;;;5046734;28;20036;-84
2022/07/18 12:27:19;;;;;;;1.90;1.20;;;41.50;28.20;;;;;;5055000;28;20029;-84
2022/07/18 12:30:04;;;;;;;2.22;0.80;;;41.70;28.20;;;;;;5036413;28;20098;-84
2022/07/18 12:32:51;;;;;;;2.55;1.10;;;41.80;27.20;;;;;;5053002;28;20392;-84
2022/07/18 12:35:25;;;;;;;2.47;1.40;;;41.80;28.20;;;;;;5029743;28;20032;-83
2022/07/18 12:37:59;;;;;;;4.80;1.05;;;41.70;28.10;;;;;;5054022;28;20492;-81
2022/07/18 12:40:26;;;;;;;6.53;1.67;;;41.70;28.50;;;;;;5006157;28;20569;-83
2022/07/18 12:43:02;;;;;;;4.13;1.15;;;41.90;28.00;;;;;;5046620;28;20036;-83
2022/07/18 12:45:27;;;;;;;2.15;1.17;;;41.50;27.20;;;;;;5025914;28;20052;-83
2022/07/18 12:47:53;;;;;;;2.30;1.30;;;41.20;27.50;;;;;;5045601;28;20495;-81
2022/07/18 12:50:18;;;;;;;2.97;1.30;;;41.00;27.50;;;;;;5046405;28;20462;-82
2022/07/18 12:52:44;;;;;;;3.78;1.00;;;41.30;28.30;;;;;;5044929;28;20722;-83
2022/07/18 12:55:09;;;;;;;2.30;1.08;;;41.70;27.90;;;;;;5039032;28;20029;-82